Aérodrome :
LOGIN :

S'inscrire | Disclaimer

   EN    FR    IT 

 










Légende :    VFR   VFR Marginal   IFR   IFR Intensif   IFR Très Intensif
Visi : 
Plafond : 
>= 8 km
>= 3000ft
5 à 8 km
1000 à 3000 ft
1500m à 5 km
500 à 1000 ft
800 à 1500m
200 à 500 ft
< 800m
< 200 ft
Symboles :   Orages  Brouillard  Fortes neiges  Fortes précipitations  Vent > 20 kt
SIGMETs :   Divers  Orages  Givrage  Turbulence  Onde Orograph.  Cendres Volcan.







- Altitude de l'aérodrome : 157 ft
- Code IATA : SXF


EDDB - Berlin Schönefeld

DERNIER METAR :
  • 171650Z 14006KT 110V170 CAVOK 24/17 Q1015 TEMPO SHRA

METARs EXPIRÉS :
  • 171620Z 14007KT 110V170 CAVOK 25/17 Q1015 NOSIG
  • 171550Z 13008KT CAVOK 25/17 Q1015 NOSIG
  • 171520Z 13008KT CAVOK 25/16 Q1016 NOSIG
  • 171450Z 13008KT 110V170 CAVOK 25/16 Q1016 NOSIG
  • 171420Z 13007KT CAVOK 25/16 Q1016 NOSIG

TAF TAF EDDB
Valide du 17 à 12h jusqu'au 18 à 12h UTC


171100Z 1712/1812 15008KT 9999 SCT030
BECMG 1717/1719 26007KT
PROB30
TEMPO 1717/1723 26015G25KT TSRA BKN040CB
BECMG 1802/1804 20004KT
Pas de NOTAMs connus pour ce terrain.



MET'MAP, la Météo Aéronautique d'un coup d'oeil ! - Copyright ORBIFLY Décembre 2007 - Disclaimer

ORBIFLY MET'MAP TEAM :

Programmation & Développement : Alexandra Zaïnal
Conception & Développement : Baudouin d'Aumeries
Co-Programmation & Développement : Marc-Olivier Méhu
Soutien technique & logistique : Manuel Goepfert

Contact : metmap@orbifly.com




SOURCES & CREDITS :

   NOAA